sensor_id;sensor_type;location;lat;lon;timestamp;P1;durP1;ratioP1;P2;durP2;ratioP2
12770;SDS011;6449;47.666;9.160;2023-02-28T00:00:12;7.70;;;6.37;;
12770;SDS011;6449;47.666;9.160;2023-02-28T00:05:06;7.70;;;6.20;;
12770;SDS011;6449;47.666;9.160;2023-02-28T00:10:05;8.77;;;7.10;;
12770;SDS011;6449;47.666;9.160;2023-02-28T00:15:01;7.63;;;6.20;;
12770;SDS011;6449;47.666;9.160;2023-02-28T00:19:57;9.33;;;6.60;;
12770;SDS011;6449;47.666;9.160;2023-02-28T00:24:55;8.33;;;6.07;;
12770;SDS011;6449;47.666;9.160;2023-02-28T00:29:50;7.07;;;5.70;;
12770;SDS011;6449;47.666;9.160;2023-02-28T00:34:45;8.07;;;6.50;;
12770;SDS011;6449;47.666;9.160;2023-02-28T00:39:38;9.10;;;6.63;;
12770;SDS011;6449;47.666;9.160;2023-02-28T00:44:32;7.00;;;6.13;;
12770;SDS011;6449;47.666;9.160;2023-02-28T00:49:27;8.70;;;7.00;;
12770;SDS011;6449;47.666;9.160;2023-02-28T00:54:21;8.03;;;5.97;;
12770;SDS011;6449;47.666;9.160;2023-02-28T00:59:15;7.63;;;6.53;;
12770;SDS011;6449;47.666;9.160;2023-02-28T01:04:10;6.77;;;5.90;;
12770;SDS011;6449;47.666;9.160;2023-02-28T01:09:05;9.83;;;6.00;;
12770;SDS011;6449;47.666;9.160;2023-02-28T01:14:00;6.90;;;5.97;;
12770;SDS011;6449;47.666;9.160;2023-02-28T01:18:54;7.33;;;6.17;;
12770;SDS011;6449;47.666;9.160;2023-02-28T01:23:47;8.63;;;6.33;;
12770;SDS011;6449;47.666;9.160;2023-02-28T01:28:44;7.20;;;5.77;;
12770;SDS011;6449;47.666;9.160;2023-02-28T01:33:37;8.27;;;6.60;;
12770;SDS011;6449;47.666;9.160;2023-02-28T01:38:33;6.80;;;6.03;;
12770;SDS011;6449;47.666;9.160;2023-02-28T01:43:27;8.67;;;6.53;;
12770;SDS011;6449;47.666;9.160;2023-02-28T01:48:25;9.40;;;6.40;;
12770;SDS011;6449;47.666;9.160;2023-02-28T01:53:24;8.73;;;6.17;;
12770;SDS011;6449;47.666;9.160;2023-02-28T01:58:24;6.80;;;6.10;;
12770;SDS011;6449;47.666;9.160;2023-02-28T02:03:18;6.63;;;5.70;;
12770;SDS011;6449;47.666;9.160;2023-02-28T02:08:15;7.70;;;6.30;;
12770;SDS011;6449;47.666;9.160;2023-02-28T02:13:27;8.87;;;6.10;;
12770;SDS011;6449;47.666;9.160;2023-02-28T02:18:48;9.07;;;5.60;;
12770;SDS011;6449;47.666;9.160;2023-02-28T02:23:52;6.63;;;5.80;;
12770;SDS011;6449;47.666;9.160;2023-02-28T02:29:38;6.90;;;5.90;;
12770;SDS011;6449;47.666;9.160;2023-02-28T02:35:24;7.57;;;6.20;;
12770;SDS011;6449;47.666;9.160;2023-02-28T02:40:23;6.43;;;5.83;;
12770;SDS011;6449;47.666;9.160;2023-02-28T02:45:23;6.63;;;5.77;;
12770;SDS011;6449;47.666;9.160;2023-02-28T02:50:29;6.13;;;5.53;;
12770;SDS011;6449;47.666;9.160;2023-02-28T02:55:29;7.07;;;6.20;;
12770;SDS011;6449;47.666;9.160;2023-02-28T03:00:30;6.63;;;5.60;;
12770;SDS011;6449;47.666;9.160;2023-02-28T03:05:32;6.87;;;5.70;;
12770;SDS011;6449;47.666;9.160;2023-02-28T03:10:35;6.77;;;5.73;;
12770;SDS011;6449;47.666;9.160;2023-02-28T03:15:32;6.40;;;5.60;;
12770;SDS011;6449;47.666;9.160;2023-02-28T03:20:44;8.20;;;5.87;;
12770;SDS011;6449;47.666;9.160;2023-02-28T03:25:55;7.07;;;5.53;;
12770;SDS011;6449;47.666;9.160;2023-02-28T03:30:56;6.67;;;5.90;;
12770;SDS011;6449;47.666;9.160;2023-02-28T03:35:58;6.93;;;5.97;;
12770;SDS011;6449;47.666;9.160;2023-02-28T03:40:57;6.17;;;5.23;;
12770;SDS011;6449;47.666;9.160;2023-02-28T03:45:57;6.80;;;5.60;;
12770;SDS011;6449;47.666;9.160;2023-02-28T03:50:58;6.10;;;5.50;;
12770;SDS011;6449;47.666;9.160;2023-02-28T03:55:56;7.00;;;5.90;;
12770;SDS011;6449;47.666;9.160;2023-02-28T04:00:55;6.03;;;5.43;;
12770;SDS011;6449;47.666;9.160;2023-02-28T04:06:00;9.03;;;5.53;;
12770;SDS011;6449;47.666;9.160;2023-02-28T04:10:55;6.70;;;5.20;;
12770;SDS011;6449;47.666;9.160;2023-02-28T04:15:55;6.57;;;5.67;;
12770;SDS011;6449;47.666;9.160;2023-02-28T04:20:49;6.30;;;5.37;;
12770;SDS011;6449;47.666;9.160;2023-02-28T04:25:43;6.70;;;6.00;;
12770;SDS011;6449;47.666;9.160;2023-02-28T04:30:37;6.60;;;5.80;;
12770;SDS011;6449;47.666;9.160;2023-02-28T04:35:31;7.60;;;6.00;;
12770;SDS011;6449;47.666;9.160;2023-02-28T04:40:24;7.47;;;6.07;;
12770;SDS011;6449;47.666;9.160;2023-02-28T04:45:19;7.03;;;6.30;;
12770;SDS011;6449;47.666;9.160;2023-02-28T04:50:13;7.30;;;6.53;;
12770;SDS011;6449;47.666;9.160;2023-02-28T04:55:07;6.73;;;6.03;;
12770;SDS011;6449;47.666;9.160;2023-02-28T05:00:04;8.47;;;6.50;;
12770;SDS011;6449;47.666;9.160;2023-02-28T05:05:04;8.27;;;6.90;;
12770;SDS011;6449;47.666;9.160;2023-02-28T05:09:58;8.40;;;6.80;;
12770;SDS011;6449;47.666;9.160;2023-02-28T05:14:51;7.93;;;6.57;;
12770;SDS011;6449;47.666;9.160;2023-02-28T05:19:45;7.20;;;6.10;;
12770;SDS011;6449;47.666;9.160;2023-02-28T05:24:39;7.83;;;6.87;;
12770;SDS011;6449;47.666;9.160;2023-02-28T05:29:33;10.17;;;7.03;;
12770;SDS011;6449;47.666;9.160;2023-02-28T05:34:34;7.20;;;6.50;;
12770;SDS011;6449;47.666;9.160;2023-02-28T05:39:29;9.77;;;6.73;;
12770;SDS011;6449;47.666;9.160;2023-02-28T05:44:23;7.50;;;6.70;;
12770;SDS011;6449;47.666;9.160;2023-02-28T05:49:17;8.97;;;7.03;;
12770;SDS011;6449;47.666;9.160;2023-02-28T05:54:14;8.90;;;7.13;;
12770;SDS011;6449;47.666;9.160;2023-02-28T05:59:08;8.97;;;6.83;;
12770;SDS011;6449;47.666;9.160;2023-02-28T06:04:03;8.57;;;6.97;;
12770;SDS011;6449;47.666;9.160;2023-02-28T06:09:02;9.00;;;7.03;;
12770;SDS011;6449;47.666;9.160;2023-02-28T06:13:57;8.73;;;7.20;;
12770;SDS011;6449;47.666;9.160;2023-02-28T06:18:52;8.93;;;6.80;;
12770;SDS011;6449;47.666;9.160;2023-02-28T06:23:48;11.10;;;6.80;;
12770;SDS011;6449;47.666;9.160;2023-02-28T06:28:41;10.00;;;7.20;;
12770;SDS011;6449;47.666;9.160;2023-02-28T06:33:35;8.67;;;6.90;;
12770;SDS011;6449;47.666;9.160;2023-02-28T06:38:29;8.50;;;6.93;;
12770;SDS011;6449;47.666;9.160;2023-02-28T06:43:25;8.50;;;7.43;;
12770;SDS011;6449;47.666;9.160;2023-02-28T06:48:22;7.60;;;6.70;;
12770;SDS011;6449;47.666;9.160;2023-02-28T06:53:15;9.20;;;7.23;;
12770;SDS011;6449;47.666;9.160;2023-02-28T06:58:09;11.17;;;7.97;;
12770;SDS011;6449;47.666;9.160;2023-02-28T07:03:08;9.67;;;7.00;;
12770;SDS011;6449;47.666;9.160;2023-02-28T07:08:02;10.07;;;7.87;;
12770;SDS011;6449;47.666;9.160;2023-02-28T07:12:57;10.97;;;7.33;;
12770;SDS011;6449;47.666;9.160;2023-02-28T07:17:50;10.53;;;7.83;;
12770;SDS011;6449;47.666;9.160;2023-02-28T07:22:45;8.97;;;7.67;;
12770;SDS011;6449;47.666;9.160;2023-02-28T07:27:46;9.73;;;7.33;;
12770;SDS011;6449;47.666;9.160;2023-02-28T07:32:39;11.67;;;7.63;;
12770;SDS011;6449;47.666;9.160;2023-02-28T07:37:35;15.03;;;8.17;;
12770;SDS011;6449;47.666;9.160;2023-02-28T07:42:30;9.23;;;7.70;;
12770;SDS011;6449;47.666;9.160;2023-02-28T07:47:23;9.63;;;7.50;;
12770;SDS011;6449;47.666;9.160;2023-02-28T07:52:17;8.57;;;7.67;;
12770;SDS011;6449;47.666;9.160;2023-02-28T07:57:10;8.93;;;7.87;;
12770;SDS011;6449;47.666;9.160;2023-02-28T08:02:05;9.10;;;8.07;;
12770;SDS011;6449;47.666;9.160;2023-02-28T08:06:58;10.23;;;8.60;;
12770;SDS011;6449;47.666;9.160;2023-02-28T08:11:52;11.70;;;8.30;;
12770;SDS011;6449;47.666;9.160;2023-02-28T08:16:45;11.20;;;8.27;;
12770;SDS011;6449;47.666;9.160;2023-02-28T08:21:40;10.53;;;8.40;;
12770;SDS011;6449;47.666;9.160;2023-02-28T08:26:33;8.97;;;7.93;;
12770;SDS011;6449;47.666;9.160;2023-02-28T08:31:26;9.97;;;8.07;;
12770;SDS011;6449;47.666;9.160;2023-02-28T08:36:20;8.80;;;7.40;;
12770;SDS011;6449;47.666;9.160;2023-02-28T08:41:15;9.97;;;8.50;;
12770;SDS011;6449;47.666;9.160;2023-02-28T08:46:08;8.30;;;7.33;;
12770;SDS011;6449;47.666;9.160;2023-02-28T08:51:06;12.43;;;8.53;;
12770;SDS011;6449;47.666;9.160;2023-02-28T08:56:02;9.83;;;7.93;;
12770;SDS011;6449;47.666;9.160;2023-02-28T09:00:59;10.47;;;8.20;;
12770;SDS011;6449;47.666;9.160;2023-02-28T09:05:56;9.43;;;7.87;;
12770;SDS011;6449;47.666;9.160;2023-02-28T09:10:52;9.43;;;7.67;;
12770;SDS011;6449;47.666;9.160;2023-02-28T09:15:48;15.23;;;8.90;;
12770;SDS011;6449;47.666;9.160;2023-02-28T09:20:44;9.83;;;8.50;;
12770;SDS011;6449;47.666;9.160;2023-02-28T09:25:38;11.27;;;8.80;;
12770;SDS011;6449;47.666;9.160;2023-02-28T09:30:38;11.47;;;9.43;;
12770;SDS011;6449;47.666;9.160;2023-02-28T09:35:31;9.30;;;7.77;;
12770;SDS011;6449;47.666;9.160;2023-02-28T09:40:26;11.20;;;8.77;;
12770;SDS011;6449;47.666;9.160;2023-02-28T09:45:22;10.10;;;8.53;;
12770;SDS011;6449;47.666;9.160;2023-02-28T09:50:22;12.13;;;9.77;;
12770;SDS011;6449;47.666;9.160;2023-02-28T09:55:28;10.87;;;9.20;;
12770;SDS011;6449;47.666;9.160;2023-02-28T10:00:37;16.80;;;13.30;;
12770;SDS011;6449;47.666;9.160;2023-02-28T10:05:33;9.83;;;8.83;;
12770;SDS011;6449;47.666;9.160;2023-02-28T10:10:37;11.20;;;8.97;;
12770;SDS011;6449;47.666;9.160;2023-02-28T10:15:33;10.60;;;8.87;;
12770;SDS011;6449;47.666;9.160;2023-02-28T10:20:28;10.80;;;8.80;;
12770;SDS011;6449;47.666;9.160;2023-02-28T10:25:28;11.43;;;8.93;;
12770;SDS011;6449;47.666;9.160;2023-02-28T10:30:23;11.60;;;9.10;;
12770;SDS011;6449;47.666;9.160;2023-02-28T10:35:18;12.00;;;9.20;;
12770;SDS011;6449;47.666;9.160;2023-02-28T10:40:25;12.23;;;9.00;;
12770;SDS011;6449;47.666;9.160;2023-02-28T10:45:25;11.80;;;9.20;;
12770;SDS011;6449;47.666;9.160;2023-02-28T10:50:32;11.80;;;9.23;;
12770;SDS011;6449;47.666;9.160;2023-02-28T10:55:31;10.63;;;8.93;;
12770;SDS011;6449;47.666;9.160;2023-02-28T11:00:26;13.87;;;9.90;;
12770;SDS011;6449;47.666;9.160;2023-02-28T11:05:28;11.87;;;9.53;;
12770;SDS011;6449;47.666;9.160;2023-02-28T11:10:25;15.40;;;9.83;;
12770;SDS011;6449;47.666;9.160;2023-02-28T11:15:24;11.77;;;9.30;;
12770;SDS011;6449;47.666;9.160;2023-02-28T11:20:23;10.57;;;9.47;;
12770;SDS011;6449;47.666;9.160;2023-02-28T11:25:21;11.47;;;9.90;;
12770;SDS011;6449;47.666;9.160;2023-02-28T11:35:36;13.83;;;9.63;;
12770;SDS011;6449;47.666;9.160;2023-02-28T11:40:36;12.60;;;10.07;;
12770;SDS011;6449;47.666;9.160;2023-02-28T11:45:45;12.73;;;10.30;;
12770;SDS011;6449;47.666;9.160;2023-02-28T11:50:58;14.00;;;10.03;;
12770;SDS011;6449;47.666;9.160;2023-02-28T11:56:05;12.27;;;9.90;;
12770;SDS011;6449;47.666;9.160;2023-02-28T12:01:25;13.33;;;10.93;;
12770;SDS011;6449;47.666;9.160;2023-02-28T12:06:41;14.63;;;11.53;;
12770;SDS011;6449;47.666;9.160;2023-02-28T12:11:45;13.90;;;10.37;;
12770;SDS011;6449;47.666;9.160;2023-02-28T12:16:53;12.90;;;10.50;;
12770;SDS011;6449;47.666;9.160;2023-02-28T12:27:36;13.53;;;11.40;;
12770;SDS011;6449;47.666;9.160;2023-02-28T12:32:36;21.23;;;13.57;;
12770;SDS011;6449;47.666;9.160;2023-02-28T12:37:34;14.97;;;11.67;;
12770;SDS011;6449;47.666;9.160;2023-02-28T12:42:36;15.50;;;11.93;;
12770;SDS011;6449;47.666;9.160;2023-02-28T12:47:36;15.17;;;12.03;;
12770;SDS011;6449;47.666;9.160;2023-02-28T12:52:37;16.10;;;12.77;;
12770;SDS011;6449;47.666;9.160;2023-02-28T12:57:46;16.80;;;12.30;;
12770;SDS011;6449;47.666;9.160;2023-02-28T13:08:50;13.17;;;10.97;;
12770;SDS011;6449;47.666;9.160;2023-02-28T13:13:57;16.77;;;12.07;;
12770;SDS011;6449;47.666;9.160;2023-02-28T13:18:57;16.83;;;12.33;;
12770;SDS011;6449;47.666;9.160;2023-02-28T13:24:05;17.47;;;12.83;;
12770;SDS011;6449;47.666;9.160;2023-02-28T13:29:02;15.27;;;12.50;;
12770;SDS011;6449;47.666;9.160;2023-02-28T13:34:15;20.33;;;12.73;;
12770;SDS011;6449;47.666;9.160;2023-02-28T13:50:18;16.60;;;13.17;;
12770;SDS011;6449;47.666;9.160;2023-02-28T13:55:30;14.53;;;11.73;;
12770;SDS011;6449;47.666;9.160;2023-02-28T14:00:35;14.77;;;12.07;;
12770;SDS011;6449;47.666;9.160;2023-02-28T14:05:47;16.67;;;12.90;;
12770;SDS011;6449;47.666;9.160;2023-02-28T14:11:05;15.80;;;12.97;;
12770;SDS011;6449;47.666;9.160;2023-02-28T14:16:16;16.87;;;12.30;;
12770;SDS011;6449;47.666;9.160;2023-02-28T14:21:17;16.90;;;13.50;;
12770;SDS011;6449;47.666;9.160;2023-02-28T14:26:23;23.00;;;14.17;;
12770;SDS011;6449;47.666;9.160;2023-02-28T14:31:39;21.10;;;14.70;;
12770;SDS011;6449;47.666;9.160;2023-02-28T14:36:43;18.13;;;14.10;;
12770;SDS011;6449;47.666;9.160;2023-02-28T14:41:40;16.63;;;13.40;;
12770;SDS011;6449;47.666;9.160;2023-02-28T14:46:35;18.27;;;14.43;;
12770;SDS011;6449;47.666;9.160;2023-02-28T14:51:32;21.23;;;14.93;;
12770;SDS011;6449;47.666;9.160;2023-02-28T14:56:27;17.93;;;14.00;;
12770;SDS011;6449;47.666;9.160;2023-02-28T15:01:30;18.90;;;14.90;;
12770;SDS011;6449;47.666;9.160;2023-02-28T15:06:24;22.17;;;15.50;;
12770;SDS011;6449;47.666;9.160;2023-02-28T15:11:20;19.93;;;14.77;;
12770;SDS011;6449;47.666;9.160;2023-02-28T15:16:15;19.83;;;14.77;;
12770;SDS011;6449;47.666;9.160;2023-02-28T15:21:16;18.57;;;14.83;;
12770;SDS011;6449;47.666;9.160;2023-02-28T15:26:13;20.57;;;13.97;;
12770;SDS011;6449;47.666;9.160;2023-02-28T15:31:18;20.20;;;14.60;;
12770;SDS011;6449;47.666;9.160;2023-02-28T15:36:17;19.60;;;14.57;;
12770;SDS011;6449;47.666;9.160;2023-02-28T15:41:22;16.73;;;13.80;;
12770;SDS011;6449;47.666;9.160;2023-02-28T15:46:19;18.80;;;14.70;;
12770;SDS011;6449;47.666;9.160;2023-02-28T15:51:14;18.27;;;14.57;;
12770;SDS011;6449;47.666;9.160;2023-02-28T15:56:19;20.23;;;14.93;;
12770;SDS011;6449;47.666;9.160;2023-02-28T16:01:19;19.67;;;14.13;;
12770;SDS011;6449;47.666;9.160;2023-02-28T16:11:35;21.63;;;14.80;;
12770;SDS011;6449;47.666;9.160;2023-02-28T16:16:33;20.60;;;15.83;;
12770;SDS011;6449;47.666;9.160;2023-02-28T16:21:26;20.00;;;14.00;;
12770;SDS011;6449;47.666;9.160;2023-02-28T16:26:25;18.17;;;14.23;;
12770;SDS011;6449;47.666;9.160;2023-02-28T16:31:19;21.37;;;14.50;;
12770;SDS011;6449;47.666;9.160;2023-02-28T16:36:14;19.90;;;14.67;;
12770;SDS011;6449;47.666;9.160;2023-02-28T16:41:11;20.03;;;14.50;;
12770;SDS011;6449;47.666;9.160;2023-02-28T16:46:11;19.00;;;14.57;;
12770;SDS011;6449;47.666;9.160;2023-02-28T16:51:05;19.37;;;14.93;;
12770;SDS011;6449;47.666;9.160;2023-02-28T16:55:58;19.73;;;14.70;;
12770;SDS011;6449;47.666;9.160;2023-02-28T17:00:53;19.10;;;14.60;;
12770;SDS011;6449;47.666;9.160;2023-02-28T17:05:48;18.93;;;14.97;;
12770;SDS011;6449;47.666;9.160;2023-02-28T17:10:41;20.17;;;15.03;;
12770;SDS011;6449;47.666;9.160;2023-02-28T17:15:35;20.90;;;15.47;;
12770;SDS011;6449;47.666;9.160;2023-02-28T17:20:30;21.50;;;15.20;;
12770;SDS011;6449;47.666;9.160;2023-02-28T17:25:25;20.83;;;15.13;;
12770;SDS011;6449;47.666;9.160;2023-02-28T17:30:19;22.00;;;15.90;;
12770;SDS011;6449;47.666;9.160;2023-02-28T17:35:15;18.23;;;15.07;;
12770;SDS011;6449;47.666;9.160;2023-02-28T17:40:12;21.07;;;15.60;;
12770;SDS011;6449;47.666;9.160;2023-02-28T17:45:10;19.53;;;14.97;;
12770;SDS011;6449;47.666;9.160;2023-02-28T17:50:04;19.97;;;14.47;;
12770;SDS011;6449;47.666;9.160;2023-02-28T17:54:59;20.57;;;15.30;;
12770;SDS011;6449;47.666;9.160;2023-02-28T17:59:52;18.63;;;14.33;;
12770;SDS011;6449;47.666;9.160;2023-02-28T18:04:47;17.97;;;14.47;;
12770;SDS011;6449;47.666;9.160;2023-02-28T18:09:40;17.80;;;14.50;;
12770;SDS011;6449;47.666;9.160;2023-02-28T18:14:33;21.80;;;15.70;;
12770;SDS011;6449;47.666;9.160;2023-02-28T18:26:00;19.47;;;14.57;;
12770;SDS011;6449;47.666;9.160;2023-02-28T18:30:54;20.73;;;15.27;;
12770;SDS011;6449;47.666;9.160;2023-02-28T18:35:54;23.10;;;16.20;;
12770;SDS011;6449;47.666;9.160;2023-02-28T18:40:51;20.13;;;15.33;;
12770;SDS011;6449;47.666;9.160;2023-02-28T18:45:46;22.70;;;16.17;;
12770;SDS011;6449;47.666;9.160;2023-02-28T18:50:40;19.13;;;15.50;;
12770;SDS011;6449;47.666;9.160;2023-02-28T18:55:33;20.67;;;16.03;;
12770;SDS011;6449;47.666;9.160;2023-02-28T19:00:26;20.20;;;14.83;;
12770;SDS011;6449;47.666;9.160;2023-02-28T19:05:21;22.40;;;16.07;;
12770;SDS011;6449;47.666;9.160;2023-02-28T19:10:15;21.03;;;15.90;;
12770;SDS011;6449;47.666;9.160;2023-02-28T19:15:09;23.03;;;16.97;;
12770;SDS011;6449;47.666;9.160;2023-02-28T19:20:03;21.67;;;16.37;;
12770;SDS011;6449;47.666;9.160;2023-02-28T19:25:00;23.37;;;16.60;;
12770;SDS011;6449;47.666;9.160;2023-02-28T19:29:53;24.93;;;17.60;;
12770;SDS011;6449;47.666;9.160;2023-02-28T19:34:52;25.57;;;17.20;;
12770;SDS011;6449;47.666;9.160;2023-02-28T19:39:46;24.13;;;17.83;;
12770;SDS011;6449;47.666;9.160;2023-02-28T19:44:44;24.70;;;18.23;;
12770;SDS011;6449;47.666;9.160;2023-02-28T19:49:41;23.33;;;18.10;;
12770;SDS011;6449;47.666;9.160;2023-02-28T19:54:53;23.83;;;18.30;;
12770;SDS011;6449;47.666;9.160;2023-02-28T19:59:51;24.87;;;17.17;;
12770;SDS011;6449;47.666;9.160;2023-02-28T20:04:47;24.10;;;17.63;;
12770;SDS011;6449;47.666;9.160;2023-02-28T20:09:51;24.30;;;18.77;;
12770;SDS011;6449;47.666;9.160;2023-02-28T20:14:46;23.57;;;17.23;;
12770;SDS011;6449;47.666;9.160;2023-02-28T20:19:41;24.43;;;18.33;;
12770;SDS011;6449;47.666;9.160;2023-02-28T20:24:37;25.27;;;19.43;;
12770;SDS011;6449;47.666;9.160;2023-02-28T20:29:32;24.73;;;18.47;;
12770;SDS011;6449;47.666;9.160;2023-02-28T20:34:26;25.00;;;17.83;;
12770;SDS011;6449;47.666;9.160;2023-02-28T20:39:21;25.13;;;18.50;;
12770;SDS011;6449;47.666;9.160;2023-02-28T20:44:15;25.10;;;18.23;;
12770;SDS011;6449;47.666;9.160;2023-02-28T20:49:09;26.90;;;19.10;;
12770;SDS011;6449;47.666;9.160;2023-02-28T20:54:03;27.03;;;18.90;;
12770;SDS011;6449;47.666;9.160;2023-02-28T20:58:58;26.37;;;19.90;;
12770;SDS011;6449;47.666;9.160;2023-02-28T21:03:52;27.03;;;19.37;;
12770;SDS011;6449;47.666;9.160;2023-02-28T21:08:47;24.13;;;18.77;;
12770;SDS011;6449;47.666;9.160;2023-02-28T21:13:42;26.77;;;19.57;;
12770;SDS011;6449;47.666;9.160;2023-02-28T21:18:38;28.00;;;19.77;;
12770;SDS011;6449;47.666;9.160;2023-02-28T21:23:32;23.07;;;17.77;;
12770;SDS011;6449;47.666;9.160;2023-02-28T21:28:26;25.27;;;19.33;;
12770;SDS011;6449;47.666;9.160;2023-02-28T21:33:19;25.83;;;18.70;;
12770;SDS011;6449;47.666;9.160;2023-02-28T21:38:14;26.13;;;18.30;;
12770;SDS011;6449;47.666;9.160;2023-02-28T21:43:08;28.10;;;20.60;;
12770;SDS011;6449;47.666;9.160;2023-02-28T21:48:01;25.43;;;18.77;;
12770;SDS011;6449;47.666;9.160;2023-02-28T21:52:55;26.33;;;18.87;;
12770;SDS011;6449;47.666;9.160;2023-02-28T21:57:50;27.60;;;18.43;;
12770;SDS011;6449;47.666;9.160;2023-02-28T22:02:44;30.43;;;20.13;;
12770;SDS011;6449;47.666;9.160;2023-02-28T22:07:37;24.80;;;19.17;;
12770;SDS011;6449;47.666;9.160;2023-02-28T22:12:32;24.97;;;19.10;;
12770;SDS011;6449;47.666;9.160;2023-02-28T22:17:27;26.97;;;18.53;;
12770;SDS011;6449;47.666;9.160;2023-02-28T22:22:20;24.07;;;18.40;;
12770;SDS011;6449;47.666;9.160;2023-02-28T22:27:13;27.43;;;19.57;;
12770;SDS011;6449;47.666;9.160;2023-02-28T22:32:07;25.83;;;19.03;;
12770;SDS011;6449;47.666;9.160;2023-02-28T22:37:03;25.70;;;18.93;;
12770;SDS011;6449;47.666;9.160;2023-02-28T22:41:56;26.23;;;19.00;;
12770;SDS011;6449;47.666;9.160;2023-02-28T22:46:51;27.47;;;20.07;;
12770;SDS011;6449;47.666;9.160;2023-02-28T22:51:45;26.13;;;18.77;;
12770;SDS011;6449;47.666;9.160;2023-02-28T22:56:40;25.13;;;19.17;;
12770;SDS011;6449;47.666;9.160;2023-02-28T23:01:33;25.90;;;19.30;;
12770;SDS011;6449;47.666;9.160;2023-02-28T23:06:28;25.80;;;19.30;;
12770;SDS011;6449;47.666;9.160;2023-02-28T23:11:26;27.93;;;19.23;;
12770;SDS011;6449;47.666;9.160;2023-02-28T23:16:24;28.17;;;18.93;;
12770;SDS011;6449;47.666;9.160;2023-02-28T23:21:21;26.77;;;19.33;;
12770;SDS011;6449;47.666;9.160;2023-02-28T23:26:15;26.17;;;19.73;;
12770;SDS011;6449;47.666;9.160;2023-02-28T23:31:08;27.00;;;19.27;;
12770;SDS011;6449;47.666;9.160;2023-02-28T23:36:10;24.17;;;18.80;;
12770;SDS011;6449;47.666;9.160;2023-02-28T23:41:06;24.17;;;18.50;;
12770;SDS011;6449;47.666;9.160;2023-02-28T23:46:01;25.33;;;19.33;;
12770;SDS011;6449;47.666;9.160;2023-02-28T23:50:58;25.10;;;18.17;;
12770;SDS011;6449;47.666;9.160;2023-02-28T23:55:54;24.93;;;18.53;;
